Time;durP1;ratioP1;P1;durP2;ratioP2;P2;SDS_P1;SDS_P2;PMS_P1;PMS_P2;Temp;Humidity;BMP_temperature;BMP_pressure;BME280_temperature;BME280_humidity;BME280_pressure;Samples;Min_cycle;Max_cycle;Signal;HPM_P1;HPM_P2
2023/08/24 00:47:03;;;;;;;6.97;3.50;;;;;;;;;;5506578;23;20611;-63
2023/08/24 00:53:26;;;;;;;7.47;3.88;;;;;;;;;;4913356;28;21366;-63
2023/08/24 00:55:53;;;;;;;6.78;3.40;;;;;;;;;;4929222;28;20041;-64
2023/08/24 00:58:20;;;;;;;8.15;3.65;;;;;;;;;;4979588;28;20034;-65
2023/08/24 01:00:47;;;;;;;7.57;3.83;;;;;;;;;;4998898;28;20088;-62
2023/08/24 01:03:13;;;;;;;6.43;2.90;;;;;;;;;;4984460;28;20042;-62
2023/08/24 01:05:40;;;;;;;6.15;3.33;;;;;;;;;;4981776;28;20130;-64
2023/08/24 01:08:06;;;;;;;6.85;3.22;;;;;;;;;;4969486;28;20045;-63
2023/08/24 01:10:41;;;;;;;6.70;3.58;;;;;;;;;;4982935;28;20581;-62
2023/08/24 01:13:11;;;;;;;5.90;2.97;;;;;;;;;;4979225;28;20419;-63
2023/08/24 01:15:39;;;;;;;5.90;3.25;;;;;;;;;;4985632;28;20724;-64
2023/08/24 01:18:09;;;;;;;6.68;3.10;;;;;;;;;;4977885;28;20184;-63
2023/08/24 01:20:36;;;;;;;5.53;2.90;;;;;;;;;;4976894;28;20045;-66
2023/08/24 01:23:22;;;;;;;5.47;3.20;;;;;;;;;;4977742;28;20120;-63
2023/08/24 01:26:09;;;;;;;4.72;2.55;;;;;;;;;;4991247;28;20060;-64
2023/08/24 01:28:35;;;;;;;5.43;2.67;;;;;;;;;;4984782;28;20486;-61
2023/08/24 01:31:04;;;;;;;6.38;2.90;;;;;;;;;;4993903;28;20038;-61
2023/08/24 01:33:31;;;;;;;6.22;2.97;;;;;;;;;;4984696;28;20356;-64
2023/08/24 01:35:58;;;;;;;7.72;3.35;;;;;;;;;;4986978;28;20042;-63
2023/08/24 01:38:24;;;;;;;5.13;2.63;;;;;;;;;;4992878;28;20072;-64
2023/08/24 01:41:07;;;;;;;6.32;2.70;;;;;;;;;;4986850;28;20142;-63
2023/08/24 01:43:35;;;;;;;5.68;2.42;;;;;;;;;;4985936;28;20491;-57
2023/08/24 01:46:07;;;;;;;7.10;2.38;;;;;;;;;;4985585;28;20172;-64
2023/08/24 01:48:33;;;;;;;6.05;2.90;;;;;;;;;;4985508;28;20092;-65
2023/08/24 01:51:01;;;;;;;5.78;2.80;;;;;;;;;;4995967;28;20121;-62
2023/08/24 01:53:29;;;;;;;5.90;2.38;;;;;;;;;;4985435;28;20050;-62
2023/08/24 01:55:55;;;;;;;5.18;2.40;;;;;;;;;;4986952;28;20072;-62
2023/08/24 01:58:22;;;;;;;4.88;2.10;;;;;;;;;;4986350;28;20414;-64
2023/08/24 02:00:49;;;;;;;4.85;2.10;;;;;;;;;;4987372;28;20062;-64
2023/08/24 02:03:15;;;;;;;4.22;1.95;;;;;;;;;;4988772;28;20046;-63
2023/08/24 02:05:42;;;;;;;4.88;1.98;;;;;;;;;;4975731;28;20056;-65
2023/08/24 02:08:09;;;;;;;4.72;2.10;;;;;;;;;;4981046;28;20034;-65
2023/08/24 02:10:35;;;;;;;5.05;2.25;;;;;;;;;;4975117;28;20487;-64
2023/08/24 02:13:02;;;;;;;5.22;2.30;;;;;;;;;;4973600;28;20609;-63
2023/08/24 02:15:28;;;;;;;4.25;2.10;;;;;;;;;;4981440;28;20659;-62
2023/08/24 02:17:56;;;;;;;5.55;2.40;;;;;;;;;;4980306;28;20649;-63
2023/08/24 02:20:23;;;;;;;4.72;2.10;;;;;;;;;;4974574;28;20065;-64
2023/08/24 02:22:49;;;;;;;4.22;2.00;;;;;;;;;;4974655;28;20084;-63
2023/08/24 02:25:16;;;;;;;4.47;1.92;;;;;;;;;;4977947;28;20189;-65
2023/08/24 02:27:42;;;;;;;6.10;2.20;;;;;;;;;;4980362;28;20053;-63
2023/08/24 02:30:09;;;;;;;6.95;2.33;;;;;;;;;;4973346;28;20050;-65
2023/08/24 02:32:36;;;;;;;4.28;2.08;;;;;;;;;;4981962;28;20058;-62
2023/08/24 02:35:02;;;;;;;4.53;2.22;;;;;;;;;;4987646;28;20047;-64
2023/08/24 02:37:29;;;;;;;5.97;2.20;;;;;;;;;;4972796;28;20038;-63
2023/08/24 02:39:56;;;;;;;5.38;1.95;;;;;;;;;;4973619;28;20038;-64
2023/08/24 02:42:42;;;;;;;5.40;1.88;;;;;;;;;;4973517;28;20050;-63
2023/08/24 02:45:09;;;;;;;4.88;2.17;;;;;;;;;;4973983;28;20085;-63
2023/08/24 02:47:36;;;;;;;5.10;2.03;;;;;;;;;;4968715;28;20046;-66
2023/08/24 02:50:03;;;;;;;5.15;2.40;;;;;;;;;;4961624;28;20106;-63
2023/08/24 02:55:27;;;;;;;7.13;2.00;;;;;;;;;;5024469;27;20837;-62
2023/08/24 02:57:53;;;;;;;6.55;2.17;;;;;;;;;;4996441;28;20657;-62
2023/08/24 03:00:20;;;;;;;7.18;2.40;;;;;;;;;;4994924;28;20048;-63
2023/08/24 03:02:47;;;;;;;4.95;2.13;;;;;;;;;;4993432;28;20703;-64
2023/08/24 03:05:13;;;;;;;5.88;2.22;;;;;;;;;;5002830;28;20041;-64
2023/08/24 03:07:40;;;;;;;4.88;2.15;;;;;;;;;;5003674;28;20578;-65
2023/08/24 03:10:07;;;;;;;5.50;2.60;;;;;;;;;;4994265;28;20046;-63
2023/08/24 03:12:33;;;;;;;8.00;3.63;;;;;;;;;;4996603;28;20347;-62
2023/08/24 03:15:00;;;;;;;8.82;4.68;;;;;;;;;;4993019;28;20050;-65
2023/08/24 03:17:26;;;;;;;11.23;5.07;;;;;;;;;;4991894;28;20045;-63
2023/08/24 03:19:53;;;;;;;12.38;6.32;;;;;;;;;;4994144;28;20049;-62
2023/08/24 03:22:19;;;;;;;13.95;7.45;;;;;;;;;;4994305;28;20042;-65
2023/08/24 03:24:46;;;;;;;15.43;9.07;;;;;;;;;;4993477;28;20037;-63
2023/08/24 03:27:13;;;;;;;15.75;8.90;;;;;;;;;;4997216;28;20371;-63
2023/08/24 03:29:39;;;;;;;16.08;9.18;;;;;;;;;;4993850;28;20065;-62
2023/08/24 03:32:06;;;;;;;16.33;10.43;;;;;;;;;;4994397;28;20437;-64
2023/08/24 03:34:32;;;;;;;19.42;13.02;;;;;;;;;;4994544;28;20621;-64
2023/08/24 03:36:59;;;;;;;20.38;12.88;;;;;;;;;;5010144;28;21451;-66
2023/08/24 03:39:25;;;;;;;19.65;12.23;;;;;;;;;;4995134;28;20072;-64
2023/08/24 03:41:52;;;;;;;20.38;12.27;;;;;;;;;;4993309;28;20470;-63
2023/08/24 03:44:19;;;;;;;19.25;11.90;;;;;;;;;;4995473;28;20172;-64
2023/08/24 03:46:45;;;;;;;19.75;12.07;;;;;;;;;;4995734;28;20042;-64
2023/08/24 03:49:12;;;;;;;18.08;11.75;;;;;;;;;;4996606;28;20037;-64
2023/08/24 03:51:39;;;;;;;17.60;11.30;;;;;;;;;;4995665;28;20456;-66
2023/08/24 03:54:05;;;;;;;17.90;11.10;;;;;;;;;;4997699;28;20104;-64
2023/08/24 03:56:32;;;;;;;16.67;9.82;;;;;;;;;;4996307;28;20044;-64
2023/08/24 03:58:59;;;;;;;15.52;9.10;;;;;;;;;;4995020;28;21855;-63
2023/08/24 04:01:26;;;;;;;15.00;8.98;;;;;;;;;;4992339;28;20035;-67
2023/08/24 04:03:52;;;;;;;16.85;9.55;;;;;;;;;;4993958;28;20141;-64
2023/08/24 04:06:19;;;;;;;18.10;10.55;;;;;;;;;;4982528;28;20176;-63
2023/08/24 04:08:46;;;;;;;20.48;12.05;;;;;;;;;;4979439;28;20746;-63
2023/08/24 04:11:12;;;;;;;19.35;12.40;;;;;;;;;;4982337;28;20100;-65
2023/08/24 04:13:39;;;;;;;22.08;13.27;;;;;;;;;;4979429;28;20092;-63
2023/08/24 04:16:06;;;;;;;21.75;13.90;;;;;;;;;;4979354;28;20046;-63
2023/08/24 04:18:32;;;;;;;24.55;15.60;;;;;;;;;;4979870;28;20467;-62
2023/08/24 04:20:59;;;;;;;26.23;15.68;;;;;;;;;;4978889;28;20137;-64
2023/08/24 04:23:29;;;;;;;27.50;15.90;;;;;;;;;;4982511;28;20088;-63
2023/08/24 04:25:55;;;;;;;30.92;18.25;;;;;;;;;;4982954;28;20814;-64
2023/08/24 04:28:23;;;;;;;31.25;17.48;;;;;;;;;;4979051;28;20327;-63
2023/08/24 04:30:50;;;;;;;37.30;20.25;;;;;;;;;;4981111;28;20042;-63
2023/08/24 04:33:17;;;;;;;34.83;20.80;;;;;;;;;;4980020;28;20034;-63
2023/08/24 04:35:44;;;;;;;33.53;21.35;;;;;;;;;;4979864;28;20041;-63
2023/08/24 04:38:10;;;;;;;37.13;20.55;;;;;;;;;;4981359;28;20049;-63
2023/08/24 04:40:47;;;;;;;32.33;21.30;;;;;;;;;;4977954;28;20065;-63
2023/08/24 04:43:13;;;;;;;38.10;22.10;;;;;;;;;;4979232;28;20034;-61
2023/08/24 04:45:40;;;;;;;37.17;22.70;;;;;;;;;;4979958;28;20466;-62
2023/08/24 04:48:07;;;;;;;36.83;22.80;;;;;;;;;;4992858;28;20046;-60
2023/08/24 04:50:33;;;;;;;36.25;22.33;;;;;;;;;;4979261;28;20034;-61
2023/08/24 04:53:00;;;;;;;38.70;22.85;;;;;;;;;;4978782;28;20514;-63
2023/08/24 04:55:26;;;;;;;36.55;22.85;;;;;;;;;;4980083;28;21032;-61
2023/08/24 04:57:53;;;;;;;34.55;22.38;;;;;;;;;;4981087;28;20099;-62
2023/08/24 05:00:19;;;;;;;36.58;23.48;;;;;;;;;;4981289;28;20061;-63
2023/08/24 05:02:46;;;;;;;38.42;23.30;;;;;;;;;;4978080;28;20038;-62
2023/08/24 05:05:16;;;;;;;36.05;22.83;;;;;;;;;;4979816;28;20137;-62
2023/08/24 05:07:43;;;;;;;42.45;23.73;;;;;;;;;;4979699;28;20128;-62
2023/08/24 05:10:09;;;;;;;37.90;23.27;;;;;;;;;;4981463;28;20380;-63
2023/08/24 05:12:36;;;;;;;38.38;22.38;;;;;;;;;;4977904;28;20284;-63
2023/08/24 05:15:04;;;;;;;38.50;23.17;;;;;;;;;;4978288;28;20042;-64
2023/08/24 05:17:31;;;;;;;37.17;22.50;;;;;;;;;;4978013;28;20061;-62
2023/08/24 05:19:58;;;;;;;40.60;23.13;;;;;;;;;;4978969;28;20042;-63
2023/08/24 05:22:25;;;;;;;39.05;23.23;;;;;;;;;;4979076;28;20061;-63
2023/08/24 05:24:51;;;;;;;38.72;23.58;;;;;;;;;;4980668;28;20565;-62
2023/08/24 05:27:18;;;;;;;40.50;23.67;;;;;;;;;;4978632;28;20441;-61
2023/08/24 05:29:45;;;;;;;42.83;24.70;;;;;;;;;;4979974;28;20141;-64
2023/08/24 05:32:11;;;;;;;43.30;24.60;;;;;;;;;;4979919;28;21345;-63
2023/08/24 05:34:38;;;;;;;43.20;25.00;;;;;;;;;;4979536;28;20052;-61
2023/08/24 05:37:04;;;;;;;39.15;23.38;;;;;;;;;;4982211;28;20188;-61
2023/08/24 05:39:31;;;;;;;39.78;24.73;;;;;;;;;;4982301;28;20133;-61
2023/08/24 05:41:58;;;;;;;44.58;25.23;;;;;;;;;;4979936;28;20045;-61
2023/08/24 05:44:24;;;;;;;38.83;23.90;;;;;;;;;;4981545;28;20050;-62
2023/08/24 05:46:51;;;;;;;40.88;24.40;;;;;;;;;;4980959;28;20056;-62
2023/08/24 05:49:17;;;;;;;39.42;23.58;;;;;;;;;;4980028;28;20070;-63
2023/08/24 05:51:44;;;;;;;40.90;24.35;;;;;;;;;;4979862;28;20044;-61
2023/08/24 05:54:11;;;;;;;37.08;22.75;;;;;;;;;;4980114;28;20062;-65
2023/08/24 05:56:37;;;;;;;35.88;22.52;;;;;;;;;;4980691;28;20582;-64
2023/08/24 05:59:04;;;;;;;39.00;23.15;;;;;;;;;;4979992;28;20050;-61
2023/08/24 06:01:30;;;;;;;37.63;22.60;;;;;;;;;;4976097;28;20030;-63
2023/08/24 06:03:57;;;;;;;36.80;22.50;;;;;;;;;;4976946;28;20580;-64
2023/08/24 06:06:23;;;;;;;42.95;23.20;;;;;;;;;;4975753;28;20062;-63
2023/08/24 06:08:50;;;;;;;39.53;21.77;;;;;;;;;;4976296;28;20050;-61
2023/08/24 06:11:17;;;;;;;39.03;22.75;;;;;;;;;;4973535;28;20080;-64
2023/08/24 06:13:43;;;;;;;40.60;22.15;;;;;;;;;;4975848;28;20050;-62
2023/08/24 06:16:10;;;;;;;35.50;21.52;;;;;;;;;;4978943;28;20040;-64
2023/08/24 06:18:36;;;;;;;38.05;22.80;;;;;;;;;;4993115;28;20124;-63
2023/08/24 06:21:03;;;;;;;38.00;22.08;;;;;;;;;;4992579;28;20130;-61
2023/08/24 06:23:29;;;;;;;38.88;22.67;;;;;;;;;;4977667;28;20053;-64
2023/08/24 06:25:56;;;;;;;39.92;23.67;;;;;;;;;;4979315;28;20037;-61
2023/08/24 06:28:23;;;;;;;43.10;22.95;;;;;;;;;;4978625;28;20320;-63
2023/08/24 06:30:49;;;;;;;36.30;22.23;;;;;;;;;;4976522;28;20133;-63
2023/08/24 06:33:18;;;;;;;41.58;22.88;;;;;;;;;;4976288;28;20046;-63
2023/08/24 06:35:45;;;;;;;39.72;23.77;;;;;;;;;;4976560;28;20165;-61
2023/08/24 06:38:11;;;;;;;47.08;25.40;;;;;;;;;;4975894;28;20495;-63
2023/08/24 06:40:38;;;;;;;45.97;26.40;;;;;;;;;;4990872;28;20045;-61
2023/08/24 06:43:05;;;;;;;45.42;27.10;;;;;;;;;;4978901;28;20046;-61
2023/08/24 06:45:31;;;;;;;45.20;27.88;;;;;;;;;;4991439;28;20053;-62
2023/08/24 06:47:58;;;;;;;48.67;28.52;;;;;;;;;;4977704;28;20037;-61
2023/08/24 06:50:24;;;;;;;47.72;28.65;;;;;;;;;;4978710;28;20139;-62
2023/08/24 06:52:51;;;;;;;52.70;29.10;;;;;;;;;;4977465;28;20439;-65
2023/08/24 06:55:18;;;;;;;50.15;28.92;;;;;;;;;;4984292;28;20418;-61
2023/08/24 06:57:50;;;;;;;54.90;30.98;;;;;;;;;;4986202;28;20511;-61
2023/08/24 07:00:16;;;;;;;54.63;29.65;;;;;;;;;;4985222;28;20128;-61
2023/08/24 07:02:43;;;;;;;53.72;31.73;;;;;;;;;;4977641;28;20038;-62
2023/08/24 07:05:12;;;;;;;51.15;30.05;;;;;;;;;;4977923;28;20434;-62
2023/08/24 07:07:39;;;;;;;50.40;30.77;;;;;;;;;;4978647;28;20607;-61
2023/08/24 07:10:06;;;;;;;54.10;31.50;;;;;;;;;;4980990;28;20380;-62
2023/08/24 07:12:33;;;;;;;51.40;31.52;;;;;;;;;;4982237;28;21011;-62
2023/08/24 07:14:59;;;;;;;51.97;31.75;;;;;;;;;;4983465;28;20037;-64
2023/08/24 07:17:26;;;;;;;53.83;29.75;;;;;;;;;;4986163;28;20056;-61
2023/08/24 07:19:53;;;;;;;50.92;30.15;;;;;;;;;;5001456;28;20096;-63
2023/08/24 07:22:20;;;;;;;54.67;30.02;;;;;;;;;;4991130;28;20060;-63
2023/08/24 07:24:52;;;;;;;53.92;30.75;;;;;;;;;;4990437;28;20048;-61
2023/08/24 07:27:18;;;;;;;48.28;29.10;;;;;;;;;;4990586;28;20675;-63
2023/08/24 07:29:45;;;;;;;48.42;27.95;;;;;;;;;;4989710;28;20681;-63
2023/08/24 07:32:12;;;;;;;44.42;27.45;;;;;;;;;;4993008;28;20686;-63
2023/08/24 07:34:38;;;;;;;48.60;27.80;;;;;;;;;;4981532;28;20038;-63
2023/08/24 07:37:05;;;;;;;42.28;26.00;;;;;;;;;;4981241;28;20030;-63
2023/08/24 07:39:31;;;;;;;41.65;25.02;;;;;;;;;;4982401;28;20514;-60
2023/08/24 07:41:58;;;;;;;41.75;24.17;;;;;;;;;;4987240;28;20034;-60
2023/08/24 07:44:25;;;;;;;40.10;24.20;;;;;;;;;;4986434;28;20517;-61
2023/08/24 07:46:51;;;;;;;38.05;23.25;;;;;;;;;;4981545;28;20038;-61
2023/08/24 07:49:18;;;;;;;39.63;23.02;;;;;;;;;;4980963;28;20022;-59
2023/08/24 07:51:47;;;;;;;39.63;23.75;;;;;;;;;;4980831;28;20036;-59
2023/08/24 07:54:14;;;;;;;39.85;23.55;;;;;;;;;;4981684;28;20140;-62
2023/08/24 07:56:41;;;;;;;37.67;23.20;;;;;;;;;;4985010;28;20040;-59
2023/08/24 07:59:07;;;;;;;39.47;22.83;;;;;;;;;;4981525;28;20651;-60
2023/08/24 08:01:34;;;;;;;36.83;22.48;;;;;;;;;;4983586;28;20307;-60
2023/08/24 08:04:00;;;;;;;34.47;21.52;;;;;;;;;;4983554;28;20113;-60
2023/08/24 08:06:27;;;;;;;32.88;20.45;;;;;;;;;;4998042;28;20462;-61
2023/08/24 08:08:54;;;;;;;32.85;20.23;;;;;;;;;;4982931;28;20033;-61
2023/08/24 08:11:21;;;;;;;31.92;20.05;;;;;;;;;;4980726;28;20466;-60
2023/08/24 08:13:48;;;;;;;35.80;19.83;;;;;;;;;;4997074;28;20296;-60
2023/08/24 08:16:15;;;;;;;32.22;19.23;;;;;;;;;;4981997;28;20120;-60
2023/08/24 08:18:41;;;;;;;35.40;17.95;;;;;;;;;;4980622;28;20750;-63
2023/08/24 08:21:11;;;;;;;33.28;18.67;;;;;;;;;;4980731;28;20031;-61
2023/08/24 08:23:38;;;;;;;35.63;18.98;;;;;;;;;;4980261;28;20170;-61
2023/08/24 08:26:05;;;;;;;29.38;18.55;;;;;;;;;;4994818;28;20045;-61
2023/08/24 08:28:34;;;;;;;31.75;17.77;;;;;;;;;;4980810;28;20028;-61
2023/08/24 08:31:02;;;;;;;29.50;17.42;;;;;;;;;;4980746;28;20640;-62
2023/08/24 08:33:28;;;;;;;31.02;17.55;;;;;;;;;;4980185;28;20064;-61
2023/08/24 08:35:55;;;;;;;32.80;17.42;;;;;;;;;;4985305;28;20038;-61
2023/08/24 08:38:41;;;;;;;29.40;16.98;;;;;;;;;;5003852;28;20903;-62
2023/08/24 08:41:08;;;;;;;29.25;15.77;;;;;;;;;;4997042;28;20408;-62
2023/08/24 08:43:34;;;;;;;28.67;17.08;;;;;;;;;;5003728;28;20648;-63
2023/08/24 08:46:01;;;;;;;27.88;16.80;;;;;;;;;;5002395;28;20929;-62
2023/08/24 08:48:29;;;;;;;31.67;17.23;;;;;;;;;;5001585;28;20037;-62
2023/08/24 08:50:56;;;;;;;29.10;17.42;;;;;;;;;;5003063;28;20042;-62
2023/08/24 08:53:23;;;;;;;32.05;17.70;;;;;;;;;;5003534;28;20056;-62
2023/08/24 08:55:53;;;;;;;30.77;16.83;;;;;;;;;;5002426;28;20497;-62
2023/08/24 08:58:43;;;;;;;30.80;17.95;;;;;;;;;;5002377;28;20034;-61
2023/08/24 09:01:10;;;;;;;29.77;16.75;;;;;;;;;;4982029;28;20406;-64
2023/08/24 09:03:37;;;;;;;33.50;17.73;;;;;;;;;;5001583;28;20045;-62
2023/08/24 09:06:04;;;;;;;31.00;17.58;;;;;;;;;;5001314;28;20108;-62
2023/08/24 09:08:31;;;;;;;31.65;18.30;;;;;;;;;;5001764;28;20086;-60
2023/08/24 09:10:59;;;;;;;34.28;18.13;;;;;;;;;;4980070;28;21831;-64
2023/08/24 09:13:26;;;;;;;33.65;19.05;;;;;;;;;;4981289;28;20064;-62
2023/08/24 09:15:53;;;;;;;31.10;18.25;;;;;;;;;;4979357;28;20061;-62
2023/08/24 09:18:20;;;;;;;33.65;19.17;;;;;;;;;;4979100;28;20038;-62
2023/08/24 09:20:50;;;;;;;35.83;19.30;;;;;;;;;;4979508;28;20088;-65
2023/08/24 09:23:22;;;;;;;37.05;19.67;;;;;;;;;;4981173;28;20038;-60
2023/08/24 09:25:49;;;;;;;34.63;19.70;;;;;;;;;;4982086;28;20502;-62
2023/08/24 09:28:24;;;;;;;34.30;19.15;;;;;;;;;;4981669;28;20770;-63
2023/08/24 09:31:09;;;;;;;35.95;19.98;;;;;;;;;;5015889;28;20088;-63
2023/08/24 09:33:37;;;;;;;36.17;19.63;;;;;;;;;;5016561;28;20049;-61
2023/08/24 09:36:07;;;;;;;32.80;18.38;;;;;;;;;;5015032;28;20574;-63
2023/08/24 09:38:35;;;;;;;36.42;19.67;;;;;;;;;;5016822;28;20033;-62
2023/08/24 09:41:03;;;;;;;34.70;19.08;;;;;;;;;;5016445;28;20517;-63
2023/08/24 09:43:31;;;;;;;29.65;18.08;;;;;;;;;;5000380;28;20131;-60
2023/08/24 09:45:58;;;;;;;34.78;19.45;;;;;;;;;;4999043;28;20049;-61
2023/08/24 09:48:25;;;;;;;34.72;18.83;;;;;;;;;;5001193;28;20485;-62
2023/08/24 09:50:52;;;;;;;31.65;19.13;;;;;;;;;;5015565;28;20044;-62
2023/08/24 09:53:23;;;;;;;33.92;18.73;;;;;;;;;;5015732;28;20029;-60
2023/08/24 09:55:55;;;;;;;33.78;18.67;;;;;;;;;;5015218;28;20433;-61
2023/08/24 09:58:22;;;;;;;35.75;18.90;;;;;;;;;;5015806;28;20029;-62
2023/08/24 10:00:50;;;;;;;33.42;18.92;;;;;;;;;;5016311;28;20512;-62
2023/08/24 10:03:21;;;;;;;32.83;18.88;;;;;;;;;;4980218;28;20050;-61
2023/08/24 10:05:51;;;;;;;32.00;18.55;;;;;;;;;;4994221;28;20108;-63
2023/08/24 10:08:22;;;;;;;33.42;18.42;;;;;;;;;;4978542;28;20625;-61
2023/08/24 10:10:53;;;;;;;34.25;19.45;;;;;;;;;;4979897;28;20030;-63
2023/08/24 10:13:24;;;;;;;31.13;18.27;;;;;;;;;;4979915;28;20025;-61
2023/08/24 10:15:51;;;;;;;34.08;18.77;;;;;;;;;;4978183;28;20798;-63
2023/08/24 10:18:19;;;;;;;30.98;17.50;;;;;;;;;;4980137;28;20414;-61
2023/08/24 10:20:46;;;;;;;30.10;17.63;;;;;;;;;;4979008;28;20092;-62
2023/08/24 10:23:13;;;;;;;31.27;18.05;;;;;;;;;;4979362;28;20644;-65
2023/08/24 10:25:42;;;;;;;33.00;17.90;;;;;;;;;;4979516;28;20050;-63
2023/08/24 10:28:09;;;;;;;30.27;16.92;;;;;;;;;;4979168;28;20022;-61
2023/08/24 10:30:37;;;;;;;26.65;15.77;;;;;;;;;;4978052;28;20456;-63
2023/08/24 10:33:05;;;;;;;33.47;18.90;;;;;;;;;;4977817;28;20018;-62
2023/08/24 10:35:32;;;;;;;33.80;17.92;;;;;;;;;;4978963;28;20046;-63
2023/08/24 10:38:01;;;;;;;36.30;18.70;;;;;;;;;;4979428;28;20065;-62
2023/08/24 10:40:34;;;;;;;29.88;17.23;;;;;;;;;;4978653;28;20125;-61
2023/08/24 10:43:07;;;;;;;31.60;17.27;;;;;;;;;;4978634;28;20026;-61
2023/08/24 10:45:52;;;;;;;29.75;17.17;;;;;;;;;;4977691;28;20037;-61
2023/08/24 10:48:19;;;;;;;33.08;18.52;;;;;;;;;;4978676;28;20030;-60
2023/08/24 10:51:05;;;;;;;35.78;19.73;;;;;;;;;;4992572;28;20127;-62
2023/08/24 10:53:41;;;;;;;33.17;18.83;;;;;;;;;;4980022;28;20058;-63
2023/08/24 10:56:12;;;;;;;34.35;19.15;;;;;;;;;;4978179;28;20049;-64
2023/08/24 10:58:38;;;;;;;34.42;18.23;;;;;;;;;;4978349;28;20763;-62
2023/08/24 11:01:05;;;;;;;35.63;20.63;;;;;;;;;;4977297;28;21055;-62
2023/08/24 11:03:32;;;;;;;33.95;19.75;;;;;;;;;;4977062;28;20062;-62
2023/08/24 11:05:59;;;;;;;32.15;19.55;;;;;;;;;;4976539;28;20366;-64
2023/08/24 11:08:45;;;;;;;34.15;19.17;;;;;;;;;;4991869;28;20506;-62
2023/08/24 11:11:21;;;;;;;37.03;20.75;;;;;;;;;;4978497;28;20033;-64
2023/08/24 11:14:22;;;;;;;31.92;19.55;;;;;;;;;;4980927;28;20419;-61
2023/08/24 11:16:49;;;;;;;35.70;20.33;;;;;;;;;;4990584;28;20082;-61
2023/08/24 11:19:16;;;;;;;36.58;19.63;;;;;;;;;;4985093;28;20092;-61
2023/08/24 11:21:44;;;;;;;38.83;19.98;;;;;;;;;;4984650;28;20041;-61
2023/08/24 11:24:15;;;;;;;32.38;18.77;;;;;;;;;;4985099;28;20046;-63
2023/08/24 11:26:45;;;;;;;33.42;19.45;;;;;;;;;;4984151;28;20037;-61
2023/08/24 11:29:12;;;;;;;33.75;19.38;;;;;;;;;;4985147;28;20069;-62
2023/08/24 11:31:39;;;;;;;34.90;20.65;;;;;;;;;;4985008;28;20159;-61
2023/08/24 11:34:07;;;;;;;35.00;20.95;;;;;;;;;;4984743;28;20803;-61
2023/08/24 11:36:50;;;;;;;38.05;19.20;;;;;;;;;;4971206;28;20467;-60
2023/08/24 11:39:17;;;;;;;32.15;19.13;;;;;;;;;;4983561;28;20436;-61
2023/08/24 11:41:44;;;;;;;34.83;19.40;;;;;;;;;;4984729;28;20041;-64
2023/08/24 11:44:11;;;;;;;31.83;19.42;;;;;;;;;;4985046;28;21259;-61
2023/08/24 11:46:39;;;;;;;33.22;17.67;;;;;;;;;;4981277;28;20065;-62
2023/08/24 11:49:06;;;;;;;32.08;18.70;;;;;;;;;;4982556;28;21712;-61
2023/08/24 11:51:34;;;;;;;34.15;18.90;;;;;;;;;;4986293;28;20042;-61
2023/08/24 11:54:22;;;;;;;31.38;18.17;;;;;;;;;;5005404;28;20148;-62
2023/08/24 11:56:49;;;;;;;30.23;18.25;;;;;;;;;;4991508;28;20041;-61
2023/08/24 11:59:36;;;;;;;36.63;18.75;;;;;;;;;;5006603;28;20544;-62
2023/08/24 12:02:03;;;;;;;33.33;19.23;;;;;;;;;;4986608;28;20646;-61
2023/08/24 12:04:39;;;;;;;33.00;18.73;;;;;;;;;;5000901;28;20045;-61
2023/08/24 12:07:17;;;;;;;31.52;18.58;;;;;;;;;;5002259;28;20497;-59
2023/08/24 12:09:43;;;;;;;33.25;19.05;;;;;;;;;;4986680;28;20141;-60
2023/08/24 12:12:16;;;;;;;33.45;18.55;;;;;;;;;;5002594;28;20128;-63
2023/08/24 12:14:46;;;;;;;31.65;17.98;;;;;;;;;;4986488;28;20188;-62
2023/08/24 12:17:13;;;;;;;32.38;18.60;;;;;;;;;;4981099;28;20033;-62
2023/08/24 12:19:59;;;;;;;32.67;19.17;;;;;;;;;;5002198;28;21876;-61
2023/08/24 12:22:25;;;;;;;36.15;20.63;;;;;;;;;;5002711;28;21166;-62
2023/08/24 12:24:52;;;;;;;32.60;18.50;;;;;;;;;;4994423;28;20041;-63
2023/08/24 12:27:38;;;;;;;36.47;18.88;;;;;;;;;;4981519;28;20128;-59
2023/08/24 12:30:05;;;;;;;36.90;18.77;;;;;;;;;;4963721;28;20049;-60
2023/08/24 12:32:50;;;;;;;34.28;19.55;;;;;;;;;;4985808;28;20083;-63
2023/08/24 12:35:17;;;;;;;36.33;19.17;;;;;;;;;;4984490;28;20092;-65
2023/08/24 12:37:44;;;;;;;37.13;19.85;;;;;;;;;;4994431;28;21843;-62
2023/08/24 12:40:11;;;;;;;32.63;18.55;;;;;;;;;;4982623;28;20219;-66
2023/08/24 12:42:37;;;;;;;32.80;19.20;;;;;;;;;;4988082;28;20420;-62
2023/08/24 12:45:05;;;;;;;35.58;19.05;;;;;;;;;;5004965;28;20037;-62
2023/08/24 12:47:34;;;;;;;35.90;20.30;;;;;;;;;;5002531;28;20295;-63
2023/08/24 12:50:01;;;;;;;36.55;19.30;;;;;;;;;;4985680;28;20520;-61
2023/08/24 12:52:27;;;;;;;37.15;19.13;;;;;;;;;;4981496;28;20636;-63
2023/08/24 12:54:54;;;;;;;35.25;19.17;;;;;;;;;;5002392;28;20139;-63
2023/08/24 12:57:20;;;;;;;31.73;18.13;;;;;;;;;;5001991;28;20086;-63
2023/08/24 13:00:08;;;;;;;33.92;19.17;;;;;;;;;;4999460;28;20080;-61
2023/08/24 13:02:54;;;;;;;33.22;20.27;;;;;;;;;;4984523;28;20049;-61
2023/08/24 13:05:21;;;;;;;34.33;18.38;;;;;;;;;;4976629;28;20590;-65
2023/08/24 13:07:47;;;;;;;36.83;19.67;;;;;;;;;;4975008;28;20207;-63
2023/08/24 13:10:14;;;;;;;30.65;17.33;;;;;;;;;;4975564;28;20057;-62
2023/08/24 13:12:41;;;;;;;34.42;18.30;;;;;;;;;;4977371;28;20041;-64
2023/08/24 13:15:08;;;;;;;34.50;18.88;;;;;;;;;;4977445;28;20127;-61
2023/08/24 13:17:35;;;;;;;40.33;20.88;;;;;;;;;;4975531;28;20034;-60
2023/08/24 13:20:02;;;;;;;35.53;19.65;;;;;;;;;;4976663;28;20236;-64
2023/08/24 13:22:29;;;;;;;33.80;18.60;;;;;;;;;;4975305;28;20573;-61
2023/08/24 13:24:56;;;;;;;36.25;19.08;;;;;;;;;;4975008;28;20056;-63
2023/08/24 13:27:23;;;;;;;34.47;18.73;;;;;;;;;;4976126;28;20137;-60
2023/08/24 13:29:50;;;;;;;31.58;18.30;;;;;;;;;;4976857;28;20128;-62
2023/08/24 13:32:16;;;;;;;31.30;18.35;;;;;;;;;;4976421;28;20307;-61
2023/08/24 13:34:43;;;;;;;32.80;19.42;;;;;;;;;;4975723;28;20473;-60
2023/08/24 13:37:10;;;;;;;43.15;20.02;;;;;;;;;;4989357;28;20044;-62
2023/08/24 13:39:36;;;;;;;41.28;20.27;;;;;;;;;;4990795;28;20165;-60
2023/08/24 13:42:03;;;;;;;31.90;18.13;;;;;;;;;;4978879;28;20025;-60
2023/08/24 13:44:30;;;;;;;37.78;19.02;;;;;;;;;;4979318;28;20037;-63
2023/08/24 13:46:56;;;;;;;33.78;18.48;;;;;;;;;;4978245;28;20054;-60
2023/08/24 13:49:23;;;;;;;40.78;23.23;;;;;;;;;;4979447;28;20115;-60
2023/08/24 13:51:49;;;;;;;39.65;20.55;;;;;;;;;;4980025;28;20089;-61
2023/08/24 13:54:17;;;;;;;32.15;18.95;;;;;;;;;;4980264;28;20521;-60
2023/08/24 13:56:48;;;;;;;34.03;19.58;;;;;;;;;;4979087;28;20045;-61
2023/08/24 13:59:15;;;;;;;38.78;20.02;;;;;;;;;;4978615;28;20782;-60
2023/08/24 14:01:42;;;;;;;34.42;20.45;;;;;;;;;;4979219;28;20064;-61
2023/08/24 14:04:08;;;;;;;35.22;18.05;;;;;;;;;;4992961;28;20084;-62
2023/08/24 14:06:36;;;;;;;32.30;19.70;;;;;;;;;;4993805;28;20053;-61
2023/08/24 14:09:03;;;;;;;36.40;19.20;;;;;;;;;;4995012;28;20029;-60
2023/08/24 14:11:30;;;;;;;35.67;19.27;;;;;;;;;;4995043;28;20029;-60
2023/08/24 14:14:00;;;;;;;35.53;19.70;;;;;;;;;;4994993;28;20159;-60
2023/08/24 14:16:27;;;;;;;33.80;19.45;;;;;;;;;;4992018;28;20132;-60
2023/08/24 14:18:54;;;;;;;43.35;18.65;;;;;;;;;;4995754;28;20038;-62
2023/08/24 14:21:23;;;;;;;34.08;17.85;;;;;;;;;;4995550;28;20141;-61
2023/08/24 14:23:50;;;;;;;30.85;17.20;;;;;;;;;;4995018;28;20029;-61
2023/08/24 14:26:39;;;;;;;29.30;17.40;;;;;;;;;;4995828;28;20172;-60
2023/08/24 14:29:06;;;;;;;35.33;17.58;;;;;;;;;;4995585;28;20057;-62
2023/08/24 14:31:32;;;;;;;31.52;18.67;;;;;;;;;;4995805;28;20045;-62
2023/08/24 14:33:59;;;;;;;28.73;16.83;;;;;;;;;;4994529;28;20045;-61
2023/08/24 14:36:25;;;;;;;32.75;16.90;;;;;;;;;;4993380;28;20044;-63
2023/08/24 14:38:52;;;;;;;27.92;17.00;;;;;;;;;;4995602;28;20042;-60
2023/08/24 14:41:19;;;;;;;29.77;17.45;;;;;;;;;;4994282;28;20095;-61
2023/08/24 14:43:46;;;;;;;35.85;17.05;;;;;;;;;;4996546;28;20171;-65
2023/08/24 14:46:13;;;;;;;30.20;15.63;;;;;;;;;;4994509;28;20402;-63
2023/08/24 14:48:40;;;;;;;34.40;17.85;;;;;;;;;;4994174;28;20174;-63
2023/08/24 14:51:06;;;;;;;34.63;17.75;;;;;;;;;;4994316;28;21389;-63
2023/08/24 14:53:33;;;;;;;31.90;17.60;;;;;;;;;;4993933;28;20067;-62
2023/08/24 14:56:01;;;;;;;33.75;19.20;;;;;;;;;;4993767;28;20116;-62
2023/08/24 14:58:27;;;;;;;32.25;18.52;;;;;;;;;;4995329;28;20045;-62
2023/08/24 15:00:55;;;;;;;30.23;18.23;;;;;;;;;;4994996;28;20053;-62
2023/08/24 15:03:22;;;;;;;35.85;18.23;;;;;;;;;;4990561;28;20034;-63
2023/08/24 15:06:05;;;;;;;28.80;17.83;;;;;;;;;;4977759;28;20042;-60
2023/08/24 15:08:32;;;;;;;33.17;17.02;;;;;;;;;;4978335;28;20041;-61
2023/08/24 15:11:00;;;;;;;31.10;18.42;;;;;;;;;;4977714;28;20046;-62
2023/08/24 15:13:27;;;;;;;34.15;18.75;;;;;;;;;;4977854;28;20066;-60
2023/08/24 15:15:54;;;;;;;33.97;19.25;;;;;;;;;;4977232;28;20716;-62
2023/08/24 15:18:21;;;;;;;31.75;17.98;;;;;;;;;;4991408;28;20045;-59
2023/08/24 15:20:48;;;;;;;30.92;17.65;;;;;;;;;;4978975;28;20435;-61